createdAt,value
2023-05-20T00:00:01.860Z,11.88
2023-05-20T00:04:04.355Z,10.75
2023-05-20T00:08:09.424Z,12.10
2023-05-20T00:12:11.517Z,12.05
2023-05-20T00:16:14.203Z,10.98
2023-05-20T00:20:16.533Z,10.90
2023-05-20T00:24:18.540Z,11.95
2023-05-20T00:28:21.161Z,10.77
2023-05-20T00:32:25.020Z,10.60
2023-05-20T00:36:27.615Z,9.07
2023-05-20T00:40:29.694Z,10.40
2023-05-20T00:44:31.847Z,10.13
2023-05-20T00:48:41.269Z,10.13
2023-05-20T00:52:45.289Z,9.55
2023-05-20T00:56:47.822Z,9.68
2023-05-20T01:00:50.520Z,9.77
2023-05-20T01:04:53.228Z,10.35
2023-05-20T01:08:55.432Z,9.68
2023-05-20T01:13:01.777Z,9.55
2023-05-20T01:17:09.641Z,9.82
2023-05-20T01:21:13.848Z,11.43
2023-05-20T01:25:16.845Z,10.60
2023-05-20T01:29:22.347Z,9.00
2023-05-20T01:33:25.476Z,10.75
2023-05-20T01:37:28.633Z,11.25
2023-05-20T01:41:32.009Z,10.68
2023-05-20T01:45:34.394Z,11.40
2023-05-20T01:49:36.917Z,9.77
2023-05-20T01:53:39.016Z,8.25
2023-05-20T01:57:40.726Z,8.80
2023-05-20T02:01:43.231Z,9.45
2023-05-20T02:05:45.721Z,9.18
2023-05-20T02:09:47.943Z,8.90
2023-05-20T02:13:51.144Z,8.95
2023-05-20T02:17:53.854Z,8.70
2023-05-20T02:21:56.110Z,8.73
2023-05-20T02:25:58.205Z,8.32
2023-05-20T02:30:00.746Z,9.35
2023-05-20T02:34:02.932Z,8.60
2023-05-20T02:38:05.098Z,9.18
2023-05-20T02:42:07.189Z,9.85
2023-05-20T02:46:09.318Z,12.15
2023-05-20T02:50:11.396Z,12.55
2023-05-20T02:54:13.440Z,14.10
2023-05-20T02:58:15.599Z,15.32
2023-05-20T03:02:17.572Z,16.05
2023-05-20T03:06:20.388Z,13.18
2023-05-20T03:10:22.740Z,8.10
2023-05-20T03:14:24.803Z,9.38
2023-05-20T03:18:27.274Z,7.63
2023-05-20T03:22:29.726Z,6.75
2023-05-20T03:26:33.922Z,6.95
2023-05-20T03:30:35.800Z,6.80
2023-05-20T03:34:38.393Z,6.40
2023-05-20T03:38:40.777Z,6.05
2023-05-20T03:42:43.085Z,5.68
2023-05-20T03:46:45.892Z,5.85
2023-05-20T03:50:49.905Z,5.40
2023-05-20T03:54:52.322Z,5.90
2023-05-20T03:58:54.496Z,5.55
2023-05-20T04:02:56.766Z,5.50
2023-05-20T04:07:03.244Z,5.65
2023-05-20T04:11:06.176Z,4.88
2023-05-20T04:15:09.162Z,5.22
2023-05-20T04:19:20.203Z,5.15
2023-05-20T04:23:22.690Z,5.30
2023-05-20T04:27:25.849Z,5.82
2023-05-20T04:31:28.382Z,5.40
2023-05-20T04:35:30.503Z,5.32
2023-05-20T04:39:36.970Z,5.05
2023-05-20T04:43:40.328Z,5.32
2023-05-20T04:47:44.420Z,3.88
2023-05-20T04:51:47.517Z,5.22
2023-05-20T04:55:53.912Z,4.30
2023-05-20T04:59:58.818Z,5.22
2023-05-20T05:04:02.752Z,4.38
2023-05-20T05:08:06.122Z,4.57
2023-05-20T05:12:10.135Z,4.63
2023-05-20T05:16:12.331Z,4.57
2023-05-20T05:20:14.642Z,4.63
2023-05-20T05:24:16.903Z,4.70
2023-05-20T05:28:19.127Z,4.25
2023-05-20T05:32:21.217Z,4.97
2023-05-20T05:36:25.961Z,4.78
2023-05-20T05:40:28.160Z,4.30
2023-05-20T05:44:30.947Z,4.03
2023-05-20T05:48:33.384Z,4.45
2023-05-20T05:52:36.294Z,4.20
2023-05-20T05:56:40.007Z,4.10
2023-05-20T06:00:42.082Z,4.72
2023-05-20T06:04:45.199Z,4.03
2023-05-20T06:08:47.366Z,4.38
2023-05-20T06:12:49.613Z,3.85
2023-05-20T06:16:52.571Z,3.70
2023-05-20T06:20:58.316Z,3.95
2023-05-20T06:25:02.562Z,3.60
2023-05-20T06:29:06.068Z,3.72
2023-05-20T06:33:08.910Z,4.30
2023-05-20T06:37:11.469Z,3.67
2023-05-20T06:41:13.683Z,3.63
2023-05-20T06:45:15.893Z,3.25
2023-05-20T06:49:26.582Z,3.45
2023-05-20T06:53:30.060Z,3.38
2023-05-20T06:57:32.711Z,3.55
2023-05-20T07:01:34.873Z,3.05
2023-05-20T07:05:37.631Z,3.30
2023-05-20T07:09:40.558Z,3.30
2023-05-20T07:13:43.331Z,3.15
2023-05-20T07:17:45.571Z,3.15
2023-05-20T07:21:49.719Z,3.00
2023-05-20T07:26:18.334Z,3.67
2023-05-20T07:30:20.707Z,3.25
2023-05-20T07:34:38.506Z,3.22
2023-05-20T07:38:43.018Z,3.50
2023-05-20T07:42:53.629Z,3.40
2023-05-20T07:46:56.276Z,3.40
2023-05-20T07:50:59.252Z,3.72
2023-05-20T07:55:03.843Z,3.08
2023-05-20T07:59:06.124Z,3.05
2023-05-20T08:03:14.625Z,3.00
2023-05-20T08:07:28.101Z,3.55
2023-05-20T08:11:31.026Z,3.13
2023-05-20T08:15:33.904Z,3.40
2023-05-20T08:19:36.989Z,3.75
2023-05-20T08:23:40.496Z,3.40
2023-05-20T08:27:43.167Z,3.70
2023-05-20T08:31:45.638Z,3.85
2023-05-20T08:35:49.041Z,3.70
2023-05-20T08:39:51.311Z,4.15
2023-05-20T08:43:55.125Z,4.15
2023-05-20T08:47:58.476Z,3.38
2023-05-20T08:52:01.472Z,4.40
2023-05-20T08:56:03.953Z,3.75
2023-05-20T09:00:10.736Z,3.83
2023-05-20T09:04:12.848Z,4.80
2023-05-20T09:08:15.119Z,3.70
2023-05-20T09:12:17.133Z,4.45
2023-05-20T09:16:19.324Z,4.35
2023-05-20T09:20:23.246Z,4.72
2023-05-20T09:24:26.891Z,4.40
2023-05-20T09:28:29.129Z,4.47
2023-05-20T09:32:31.457Z,4.82
2023-05-20T09:36:35.082Z,4.28
2023-05-20T09:40:41.295Z,4.28
2023-05-20T09:44:45.464Z,4.78
2023-05-20T09:48:47.861Z,4.40
2023-05-20T09:52:51.496Z,4.05
2023-05-20T09:56:54.397Z,4.72
2023-05-20T10:00:56.536Z,4.82
2023-05-20T10:05:01.508Z,4.55
2023-05-20T10:09:28.261Z,4.55
2023-05-20T10:14:07.637Z,4.80
2023-05-20T10:18:54.571Z,3.97
2023-05-20T10:22:58.175Z,4.85
2023-05-20T10:27:02.899Z,4.88
2023-05-20T10:31:24.214Z,4.45
2023-05-20T10:35:27.497Z,4.47
2023-05-20T10:39:34.194Z,4.68
2023-05-20T10:43:36.329Z,4.80
2023-05-20T10:47:53.709Z,4.57
2023-05-20T10:51:56.260Z,5.30
2023-05-20T10:55:58.148Z,4.70
2023-05-20T11:00:01.261Z,5.40
2023-05-20T11:04:05.323Z,5.05
2023-05-20T11:08:20.510Z,4.80
2023-05-20T11:12:30.373Z,4.75
2023-05-20T11:16:32.586Z,5.13
2023-05-20T11:20:35.597Z,5.28
2023-05-20T11:24:37.869Z,4.57
2023-05-20T11:28:40.166Z,5.25
2023-05-20T11:32:58.155Z,4.75
2023-05-20T11:37:01.136Z,5.05
2023-05-20T11:41:03.285Z,5.10
2023-05-20T11:45:05.514Z,4.60
2023-05-20T11:49:08.624Z,5.10
2023-05-20T11:53:14.570Z,5.65
2023-05-20T11:57:16.733Z,5.88
2023-05-20T12:01:23.419Z,5.28
2023-05-20T12:05:25.674Z,5.03
2023-05-20T12:09:27.579Z,5.75
2023-05-20T12:13:29.743Z,5.72
2023-05-20T12:17:52.739Z,4.85
2023-05-20T12:21:54.863Z,5.00
2023-05-20T12:25:57.003Z,4.78
2023-05-20T12:29:59.292Z,4.35
2023-05-20T12:34:01.395Z,5.00
2023-05-20T12:38:03.486Z,4.72
2023-05-20T12:42:05.862Z,4.97
2023-05-20T12:46:08.219Z,4.68
2023-05-20T12:50:10.926Z,5.18
2023-05-20T12:54:13.036Z,5.35
2023-05-20T12:58:15.293Z,6.13
2023-05-20T13:02:17.697Z,4.90
2023-05-20T13:06:19.794Z,4.97
2023-05-20T13:10:22.351Z,6.38
2023-05-20T13:14:24.538Z,5.10
2023-05-20T13:18:26.569Z,5.93
2023-05-20T13:22:28.639Z,5.65
2023-05-20T13:26:30.715Z,6.28
2023-05-20T13:30:33.034Z,4.88
2023-05-20T13:34:35.510Z,5.55
2023-05-20T13:38:37.904Z,5.22
2023-05-20T13:42:40.075Z,5.43
2023-05-20T13:46:42.278Z,5.22
2023-05-20T13:50:44.386Z,7.43
2023-05-20T13:54:48.653Z,32.00
2023-05-20T13:58:51.116Z,10.45
2023-05-20T14:02:53.636Z,4.70
2023-05-20T14:06:56.236Z,4.90
2023-05-20T14:10:58.533Z,5.40
2023-05-20T14:15:01.095Z,5.22
2023-05-20T14:19:03.361Z,10.23
2023-05-20T14:23:05.442Z,5.10
2023-05-20T14:27:07.554Z,15.82
2023-05-20T14:31:10.741Z,5.22
2023-05-20T14:35:12.873Z,5.07
2023-05-20T14:39:15.096Z,6.20
2023-05-20T14:43:17.611Z,4.65
2023-05-20T14:47:22.170Z,4.47
2023-05-20T14:51:24.793Z,5.07
2023-05-20T14:55:26.878Z,5.05
2023-05-20T14:59:29.047Z,4.28
2023-05-20T15:03:31.678Z,5.18
2023-05-20T15:07:33.939Z,6.57
2023-05-20T15:11:36.077Z,5.22
2023-05-20T15:15:38.037Z,4.75
2023-05-20T15:19:41.718Z,7.10
2023-05-20T15:23:44.591Z,6.57
2023-05-20T15:27:46.677Z,4.57
2023-05-20T15:31:49.176Z,34.05
2023-05-20T15:35:51.245Z,6.03
2023-05-20T15:39:53.811Z,4.78
2023-05-20T15:43:55.988Z,7.82
2023-05-20T15:47:58.303Z,8.38
2023-05-20T15:52:03.678Z,5.95
2023-05-20T15:56:07.102Z,5.38
2023-05-20T16:00:14.052Z,5.68
2023-05-20T16:04:16.477Z,5.07
2023-05-20T16:08:20.841Z,4.93
2023-05-20T16:12:23.767Z,5.43
2023-05-20T16:16:26.252Z,5.85
2023-05-20T16:20:28.462Z,5.05
2023-05-20T16:24:30.782Z,5.63
2023-05-20T16:28:32.939Z,9.50
2023-05-20T16:32:35.392Z,5.88
2023-05-20T16:36:37.568Z,4.72
2023-05-20T16:40:39.873Z,4.90
2023-05-20T16:44:41.987Z,5.22
2023-05-20T16:48:44.126Z,4.68
2023-05-20T16:52:46.413Z,4.55
2023-05-20T16:56:49.687Z,4.90
2023-05-20T17:00:51.772Z,4.30
2023-05-20T17:04:53.937Z,4.97
2023-05-20T17:08:56.592Z,4.55
2023-05-20T17:12:58.672Z,4.97
2023-05-20T17:17:00.888Z,4.50
2023-05-20T17:21:03.175Z,4.53
2023-05-20T17:25:06.326Z,4.90
2023-05-20T17:29:08.486Z,6.25
2023-05-20T17:33:12.738Z,5.55
2023-05-20T17:37:14.989Z,5.38
2023-05-20T17:41:21.772Z,4.97
2023-05-20T17:45:23.794Z,5.20
2023-05-20T17:49:26.344Z,4.75
2023-05-20T17:53:28.410Z,5.57
2023-05-20T17:57:30.526Z,5.32
2023-05-20T18:01:32.812Z,5.45
2023-05-20T18:05:35.150Z,5.18
2023-05-20T18:09:37.585Z,6.57
2023-05-20T18:13:39.919Z,7.03
2023-05-20T18:17:42.093Z,7.32
2023-05-20T18:21:44.427Z,7.75
2023-05-20T18:25:46.726Z,7.32
2023-05-20T18:29:50.011Z,7.13
2023-05-20T18:33:52.322Z,7.10
2023-05-20T18:37:54.442Z,7.43
2023-05-20T18:41:56.455Z,6.75
2023-05-20T18:45:58.592Z,7.05
2023-05-20T18:50:01.170Z,8.55
2023-05-20T18:54:03.634Z,7.07
2023-05-20T18:58:05.688Z,8.63
2023-05-20T19:02:08.254Z,8.10
2023-05-20T19:06:13.789Z,10.30
2023-05-20T19:10:16.601Z,10.50
2023-05-20T19:14:18.577Z,11.52
2023-05-20T19:18:21.495Z,9.73
2023-05-20T19:22:24.423Z,9.45
2023-05-20T19:26:26.814Z,10.45
2023-05-20T19:30:28.903Z,12.07
2023-05-20T19:34:31.245Z,21.10
2023-05-20T19:38:33.575Z,20.83
2023-05-20T19:42:35.789Z,12.88
2023-05-20T19:46:38.134Z,11.45
2023-05-20T19:50:40.444Z,10.68
2023-05-20T19:54:43.016Z,10.35
2023-05-20T19:58:48.524Z,14.20
2023-05-20T20:02:51.236Z,14.43
2023-05-20T20:06:54.173Z,18.92
2023-05-20T20:10:56.618Z,25.95
2023-05-20T20:14:58.722Z,26.30
2023-05-20T20:19:01.271Z,20.23
2023-05-20T20:23:03.580Z,18.80
2023-05-20T20:27:05.914Z,17.50
2023-05-20T20:31:08.042Z,12.27
2023-05-20T20:35:10.841Z,12.48
2023-05-20T20:39:19.049Z,11.80
2023-05-20T20:43:22.827Z,10.80
2023-05-20T20:47:29.274Z,10.57
2023-05-20T20:51:31.790Z,10.95
2023-05-20T20:55:34.414Z,9.82
2023-05-20T20:59:36.817Z,9.52
2023-05-20T21:03:40.431Z,8.80
2023-05-20T21:07:46.059Z,8.40
2023-05-20T21:11:49.438Z,8.48
2023-05-20T21:15:51.750Z,7.32
2023-05-20T21:19:56.735Z,7.43
2023-05-20T21:23:58.800Z,7.65
2023-05-20T21:28:00.902Z,6.70
2023-05-20T21:32:03.188Z,6.40
2023-05-20T21:36:06.641Z,7.40
2023-05-20T21:40:09.236Z,7.20
2023-05-20T21:44:11.475Z,6.45
2023-05-20T21:48:13.582Z,6.10
2023-05-20T21:52:15.609Z,5.80
2023-05-20T21:56:17.838Z,4.95
2023-05-20T22:00:20.751Z,6.13
2023-05-20T22:04:23.178Z,5.75
2023-05-20T22:08:26.445Z,6.03
2023-05-20T22:12:29.252Z,5.82
2023-05-20T22:16:31.298Z,5.45
2023-05-20T22:20:33.821Z,6.57
2023-05-20T22:24:35.869Z,5.38
2023-05-20T22:28:37.497Z,5.95
2023-05-20T22:32:40.397Z,6.13
2023-05-20T22:36:42.542Z,6.28
2023-05-20T22:40:44.582Z,5.85
2023-05-20T22:44:46.765Z,6.10
2023-05-20T22:48:49.387Z,5.22
2023-05-20T22:52:51.570Z,5.88
2023-05-20T22:56:57.997Z,6.00
2023-05-20T23:01:00.241Z,5.28
2023-05-20T23:05:04.135Z,5.53
2023-05-20T23:09:07.362Z,6.45
2023-05-20T23:13:09.408Z,6.03
2023-05-20T23:17:11.123Z,6.15
2023-05-20T23:21:14.375Z,5.35
2023-05-20T23:25:16.500Z,5.93
2023-05-20T23:29:18.571Z,5.38
2023-05-20T23:33:25.038Z,6.07
2023-05-20T23:37:28.443Z,5.55
2023-05-20T23:41:30.584Z,5.45
2023-05-20T23:45:32.614Z,5.22
2023-05-20T23:49:35.477Z,5.90
2023-05-20T23:53:37.545Z,5.45
2023-05-20T23:57:40.623Z,5.55
